createdAt,value
2022-11-21T00:00:54.961Z,390.30
2022-11-21T00:01:55.021Z,152.80
2022-11-21T00:02:54.970Z,390.50
2022-11-21T00:03:54.943Z,521.30
2022-11-21T00:04:54.963Z,500.90
2022-11-21T00:05:54.936Z,482.00
2022-11-21T00:06:54.897Z,139.00
2022-11-21T00:07:54.901Z,414.50
2022-11-21T00:08:54.876Z,410.30
2022-11-21T00:09:54.903Z,370.80
2022-11-21T00:10:54.861Z,380.90
2022-11-21T00:11:54.833Z,236.90
2022-11-21T00:12:54.820Z,166.20
2022-11-21T00:13:54.812Z,202.30
2022-11-21T00:14:54.836Z,437.50
2022-11-21T00:15:54.793Z,323.70
2022-11-21T00:16:57.508Z,291.60
2022-11-21T00:17:54.780Z,550.40
2022-11-21T00:18:54.752Z,300.70
2022-11-21T00:19:54.781Z,296.90
2022-11-21T00:20:54.737Z,241.30
2022-11-21T00:21:54.739Z,483.10
2022-11-21T00:22:54.720Z,554.60
2022-11-21T00:23:54.720Z,787.70
2022-11-21T00:24:54.740Z,850.20
2022-11-21T00:25:54.701Z,814.60
2022-11-21T00:26:54.673Z,729.00
2022-11-21T00:27:54.656Z,999.90
2022-11-21T00:28:54.655Z,783.10
2022-11-21T00:29:54.688Z,529.80
2022-11-21T00:30:54.632Z,431.10
2022-11-21T00:31:54.619Z,399.20
2022-11-21T00:32:54.608Z,999.90
2022-11-21T00:33:54.592Z,380.70
2022-11-21T00:34:54.610Z,507.40
2022-11-21T00:35:54.579Z,806.10
2022-11-21T00:36:54.543Z,999.90
2022-11-21T00:37:54.556Z,999.90
2022-11-21T00:38:54.541Z,999.90
2022-11-21T00:39:54.549Z,999.90
2022-11-21T00:40:54.517Z,999.90
2022-11-21T00:41:54.502Z,999.90
2022-11-21T00:42:54.496Z,999.90
2022-11-21T00:43:54.508Z,574.10
2022-11-21T00:44:54.525Z,409.90
2022-11-21T00:45:54.455Z,525.90
2022-11-21T00:46:54.463Z,999.90
2022-11-21T00:47:54.463Z,999.90
2022-11-21T00:48:54.413Z,999.90
2022-11-21T00:49:54.448Z,541.90
2022-11-21T00:50:54.387Z,999.90
2022-11-21T00:51:54.385Z,999.90
2022-11-21T00:52:54.384Z,999.90
2022-11-21T00:53:54.376Z,999.90
2022-11-21T00:54:54.399Z,999.90
2022-11-21T00:55:54.369Z,999.90
2022-11-21T00:56:54.344Z,999.90
2022-11-21T00:57:54.338Z,999.90
2022-11-21T00:58:54.325Z,999.90
2022-11-21T00:59:54.339Z,999.90
2022-11-21T01:00:54.339Z,999.90
2022-11-21T01:01:54.315Z,387.80
2022-11-21T01:02:54.277Z,999.90
2022-11-21T01:03:54.257Z,999.90
2022-11-21T01:04:54.276Z,999.90
2022-11-21T01:05:54.241Z,999.90
2022-11-21T01:06:54.250Z,999.90
2022-11-21T01:07:54.229Z,999.90
2022-11-21T01:08:54.213Z,999.90
2022-11-21T01:09:54.266Z,999.90
2022-11-21T01:10:54.180Z,999.90
2022-11-21T01:11:54.181Z,999.90
2022-11-21T01:12:54.154Z,999.90
2022-11-21T01:13:54.171Z,999.90
2022-11-21T01:14:54.192Z,999.90
2022-11-21T01:15:54.144Z,999.90
2022-11-21T01:16:54.118Z,999.90
2022-11-21T01:17:54.121Z,999.90
2022-11-21T01:18:54.086Z,999.90
2022-11-21T01:19:54.128Z,999.90
2022-11-21T01:20:54.070Z,999.90
2022-11-21T01:21:54.063Z,999.90
2022-11-21T01:22:54.050Z,999.90
2022-11-21T01:23:54.054Z,999.90
2022-11-21T01:24:54.045Z,999.90
2022-11-21T01:25:54.001Z,999.90
2022-11-21T01:26:53.998Z,999.90
2022-11-21T01:27:53.985Z,999.90
2022-11-21T01:28:53.981Z,999.90
2022-11-21T01:29:54.034Z,999.90
2022-11-21T01:30:53.959Z,999.90
2022-11-21T01:31:53.959Z,999.90
2022-11-21T01:32:53.938Z,999.90
2022-11-21T01:33:53.964Z,999.90
2022-11-21T01:34:53.957Z,999.90
2022-11-21T01:35:53.896Z,999.90
2022-11-21T01:36:53.899Z,999.90
2022-11-21T01:37:53.897Z,999.90
2022-11-21T01:38:53.884Z,999.90
2022-11-21T01:39:53.898Z,999.90
2022-11-21T01:40:53.854Z,999.90
2022-11-21T01:41:53.841Z,999.90
2022-11-21T01:42:53.811Z,896.50
2022-11-21T01:43:53.817Z,999.90
2022-11-21T01:44:53.818Z,999.90
2022-11-21T01:45:53.850Z,461.30
2022-11-21T01:46:53.775Z,999.90
2022-11-21T01:47:53.785Z,999.90
2022-11-21T01:48:53.753Z,519.40
2022-11-21T01:49:53.756Z,999.90
2022-11-21T01:50:53.785Z,276.00
2022-11-21T01:51:53.741Z,406.10
2022-11-21T01:52:53.716Z,608.50
2022-11-21T01:53:53.717Z,999.90
2022-11-21T01:54:53.702Z,999.90
2022-11-21T01:55:53.720Z,999.90
2022-11-21T01:56:53.677Z,748.50
2022-11-21T01:57:53.670Z,999.90
2022-11-21T01:58:53.664Z,999.90
2022-11-21T01:59:53.645Z,999.90
2022-11-21T02:00:53.679Z,999.90
2022-11-21T02:01:53.608Z,999.90
2022-11-21T02:02:53.597Z,999.90
2022-11-21T02:03:53.586Z,999.90
2022-11-21T02:04:53.594Z,999.90
2022-11-21T02:05:53.618Z,640.40
2022-11-21T02:06:53.573Z,468.40
2022-11-21T02:07:53.556Z,368.00
2022-11-21T02:08:53.547Z,952.80
2022-11-21T02:09:53.541Z,999.90
2022-11-21T02:10:53.557Z,543.40
2022-11-21T02:11:53.524Z,504.20
2022-11-21T02:12:53.491Z,443.90
2022-11-21T02:13:53.486Z,381.90
2022-11-21T02:14:53.476Z,430.90
2022-11-21T02:15:53.504Z,450.80
2022-11-21T02:16:53.436Z,364.60
2022-11-21T02:17:53.436Z,797.70
2022-11-21T02:18:53.434Z,549.90
2022-11-21T02:19:53.454Z,552.20
2022-11-21T02:20:53.447Z,249.80
2022-11-21T02:21:53.398Z,854.50
2022-11-21T02:22:53.399Z,647.70
2022-11-21T02:23:57.659Z,269.00
2022-11-21T02:24:54.357Z,426.20
2022-11-21T02:25:53.382Z,439.70
2022-11-21T02:26:53.326Z,479.00
2022-11-21T02:27:53.329Z,259.30
2022-11-21T02:28:53.314Z,444.90
2022-11-21T02:29:53.322Z,476.50
2022-11-21T02:30:53.345Z,353.60
2022-11-21T02:31:53.305Z,307.50
2022-11-21T02:32:53.272Z,371.80
2022-11-21T02:33:53.264Z,284.60
2022-11-21T02:34:53.264Z,235.20
2022-11-21T02:35:53.302Z,243.60
2022-11-21T02:36:53.221Z,351.30
2022-11-21T02:37:53.219Z,241.20
2022-11-21T02:38:53.196Z,229.60
2022-11-21T02:39:53.184Z,238.90
2022-11-21T02:40:53.214Z,254.20
2022-11-21T02:41:53.180Z,253.90
2022-11-21T02:42:53.174Z,273.60
2022-11-21T02:43:53.164Z,189.20
2022-11-21T02:44:53.131Z,235.00
2022-11-21T02:45:53.181Z,215.70
2022-11-21T02:46:53.110Z,280.00
2022-11-21T02:47:53.113Z,188.20
2022-11-21T02:48:53.087Z,261.30
2022-11-21T02:49:53.099Z,221.80
2022-11-21T02:50:53.107Z,180.60
2022-11-21T02:51:53.079Z,256.80
2022-11-21T02:52:53.031Z,225.30
2022-11-21T02:53:53.045Z,216.80
2022-11-21T02:54:53.038Z,155.60
2022-11-21T02:55:53.099Z,146.40
2022-11-21T02:56:53.014Z,183.60
2022-11-21T02:57:52.993Z,136.90
2022-11-21T02:58:53.012Z,227.50
2022-11-21T02:59:52.982Z,299.20
2022-11-21T03:00:53.038Z,141.80
2022-11-21T03:01:52.957Z,132.80
2022-11-21T03:02:52.970Z,231.70
2022-11-21T03:03:52.937Z,257.00
2022-11-21T03:04:52.923Z,149.00
2022-11-21T03:05:52.921Z,169.80
2022-11-21T03:06:52.946Z,257.90
2022-11-21T03:07:52.906Z,152.20
2022-11-21T03:08:52.894Z,134.80
2022-11-21T03:09:52.875Z,118.60
2022-11-21T03:10:52.862Z,242.80
2022-11-21T03:11:52.868Z,351.40
2022-11-21T03:12:52.856Z,168.10
2022-11-21T03:13:52.811Z,239.00
2022-11-21T03:14:52.811Z,292.60
2022-11-21T03:15:53.518Z,238.70
2022-11-21T03:16:52.832Z,117.40
2022-11-21T03:17:52.772Z,180.50
2022-11-21T03:18:52.779Z,295.50
2022-11-21T03:19:52.748Z,124.40
2022-11-21T03:20:52.761Z,128.70
2022-11-21T03:21:52.785Z,150.70
2022-11-21T03:22:52.728Z,245.60
2022-11-21T03:23:52.717Z,311.80
2022-11-21T03:24:52.701Z,132.90
2022-11-21T03:25:52.692Z,190.70
2022-11-21T03:26:52.721Z,286.00
2022-11-21T03:27:52.673Z,290.00
2022-11-21T03:28:52.664Z,120.70
2022-11-21T03:29:52.650Z,115.30
2022-11-21T03:30:52.648Z,143.20
2022-11-21T03:31:52.650Z,145.80
2022-11-21T03:32:52.617Z,218.10
2022-11-21T03:33:52.594Z,312.30
2022-11-21T03:34:52.591Z,227.80
2022-11-21T03:35:52.573Z,127.60
2022-11-21T03:36:52.590Z,207.60
2022-11-21T03:37:52.543Z,265.80
2022-11-21T03:38:52.559Z,134.70
2022-11-21T03:39:52.539Z,135.80
2022-11-21T03:40:52.540Z,132.30
2022-11-21T03:41:52.599Z,131.70
2022-11-21T03:42:52.506Z,278.80
2022-11-21T03:43:52.491Z,230.00
2022-11-21T03:44:52.476Z,127.20
2022-11-21T03:45:52.475Z,137.00
2022-11-21T03:46:52.496Z,202.40
2022-11-21T03:47:52.451Z,252.80
2022-11-21T03:48:52.444Z,140.60
2022-11-21T03:49:52.423Z,139.70
2022-11-21T03:50:52.402Z,226.00
2022-11-21T03:51:52.422Z,121.10
2022-11-21T03:52:52.383Z,139.20
2022-11-21T03:53:52.366Z,124.40
2022-11-21T03:54:52.381Z,136.00
2022-11-21T03:55:52.352Z,164.10
2022-11-21T03:56:52.381Z,198.90
2022-11-21T03:57:52.330Z,160.90
2022-11-21T03:58:52.317Z,166.10
2022-11-21T03:59:52.318Z,249.50
2022-11-21T04:00:52.323Z,199.00
2022-11-21T04:01:52.359Z,138.40
2022-11-21T04:02:52.271Z,147.50
2022-11-21T04:03:52.271Z,138.40
2022-11-21T04:04:52.274Z,162.10
2022-11-21T04:05:52.251Z,230.60
2022-11-21T04:06:52.291Z,231.30
2022-11-21T04:07:52.228Z,152.60
2022-11-21T04:08:52.221Z,143.10
2022-11-21T04:09:52.183Z,141.90
2022-11-21T04:10:52.212Z,281.30
2022-11-21T04:11:52.218Z,197.00
2022-11-21T04:12:52.181Z,161.10
2022-11-21T04:13:52.150Z,226.10
2022-11-21T04:14:52.161Z,242.30
2022-11-21T04:15:52.136Z,165.50
2022-11-21T04:16:52.159Z,148.30
2022-11-21T04:17:52.113Z,142.70
2022-11-21T04:18:52.121Z,155.60
2022-11-21T04:19:52.088Z,240.60
2022-11-21T04:20:52.091Z,185.80
2022-11-21T04:21:52.106Z,149.90
2022-11-21T04:22:52.065Z,135.40
2022-11-21T04:23:52.053Z,162.40
2022-11-21T04:24:52.038Z,141.90
2022-11-21T04:25:52.023Z,250.40
2022-11-21T04:26:52.053Z,317.60
2022-11-21T04:27:52.033Z,163.90
2022-11-21T04:28:51.990Z,176.70
2022-11-21T04:29:51.988Z,159.00
2022-11-21T04:30:54.839Z,152.50
2022-11-21T04:31:51.993Z,184.30
2022-11-21T04:32:51.966Z,277.30
2022-11-21T04:33:51.946Z,187.60
2022-11-21T04:34:51.942Z,160.70
2022-11-21T04:35:51.913Z,160.40
2022-11-21T04:36:51.971Z,240.40
2022-11-21T04:37:51.904Z,239.50
2022-11-21T04:38:51.921Z,182.60
2022-11-21T04:39:51.866Z,189.30
2022-11-21T04:40:51.874Z,155.70
2022-11-21T04:41:51.895Z,204.70
2022-11-21T04:42:51.863Z,190.30
2022-11-21T04:43:51.835Z,236.70
2022-11-21T04:44:51.847Z,178.80
2022-11-21T04:45:51.826Z,158.50
2022-11-21T04:46:51.839Z,174.90
2022-11-21T04:47:51.794Z,167.00
2022-11-21T04:48:51.783Z,159.10
2022-11-21T04:49:51.774Z,244.90
2022-11-21T04:50:51.774Z,268.10
2022-11-21T04:51:51.772Z,159.30
2022-11-21T04:52:51.727Z,162.50
2022-11-21T04:53:51.732Z,158.00
2022-11-21T04:54:51.724Z,180.00
2022-11-21T04:55:51.706Z,253.30
2022-11-21T04:56:51.751Z,244.40
2022-11-21T04:57:51.666Z,158.80
2022-11-21T04:58:51.672Z,139.60
2022-11-21T04:59:51.656Z,211.00
2022-11-21T05:00:51.691Z,262.10
2022-11-21T05:01:51.633Z,278.10
2022-11-21T05:02:51.657Z,177.70
2022-11-21T05:03:51.598Z,147.20
2022-11-21T05:04:51.586Z,148.40
2022-11-21T05:05:51.585Z,122.30
2022-11-21T05:06:51.600Z,172.80
2022-11-21T05:07:51.614Z,276.40
2022-11-21T05:08:53.589Z,287.50
2022-11-21T05:09:51.548Z,268.30
2022-11-21T05:10:51.535Z,175.50
2022-11-21T05:11:51.535Z,175.60
2022-11-21T05:12:51.587Z,139.60
2022-11-21T05:13:51.504Z,252.30
2022-11-21T05:14:51.500Z,282.20
2022-11-21T05:15:51.506Z,250.90
2022-11-21T05:16:51.478Z,174.50
2022-11-21T05:17:51.496Z,158.10
2022-11-21T05:18:51.460Z,160.90
2022-11-21T05:19:51.453Z,200.30
2022-11-21T05:20:51.460Z,232.60
2022-11-21T05:21:51.419Z,213.50
2022-11-21T05:22:51.443Z,181.80
2022-11-21T05:23:51.406Z,173.30
2022-11-21T05:24:51.408Z,209.70
2022-11-21T05:25:51.380Z,263.70
2022-11-21T05:26:51.380Z,175.70
2022-11-21T05:27:51.401Z,173.70
2022-11-21T05:28:51.371Z,225.80
2022-11-21T05:29:51.334Z,207.00
2022-11-21T05:30:51.357Z,176.00
2022-11-21T05:31:51.333Z,184.70
2022-11-21T05:32:51.335Z,180.20
2022-11-21T05:33:51.302Z,192.40
2022-11-21T05:34:51.286Z,249.70
2022-11-21T05:35:51.264Z,173.70
2022-11-21T05:36:51.251Z,189.70
2022-11-21T05:37:51.270Z,174.90
2022-11-21T05:38:51.228Z,241.70
2022-11-21T05:39:51.201Z,193.10
2022-11-21T05:40:51.206Z,180.40
2022-11-21T05:41:51.217Z,205.20
2022-11-21T05:42:51.254Z,182.30
2022-11-21T05:43:51.172Z,191.70
2022-11-21T05:44:51.180Z,233.80
2022-11-21T05:45:51.165Z,221.20
2022-11-21T05:46:51.153Z,184.70
2022-11-21T05:47:51.178Z,188.50
2022-11-21T05:48:51.137Z,236.10
2022-11-21T05:49:51.106Z,268.20
2022-11-21T05:50:51.117Z,175.20
2022-11-21T05:51:51.101Z,178.60
2022-11-21T05:52:51.092Z,183.70
2022-11-21T05:53:51.120Z,205.30
2022-11-21T05:54:51.057Z,255.90
2022-11-21T05:55:51.054Z,229.70
2022-11-21T05:56:51.029Z,178.60
2022-11-21T05:57:51.053Z,182.90
2022-11-21T05:58:51.060Z,192.30
2022-11-21T05:59:50.985Z,200.20
2022-11-21T06:00:54.445Z,250.80
2022-11-21T06:01:51.977Z,249.30
2022-11-21T06:02:51.095Z,172.70
2022-11-21T06:03:50.993Z,164.70
2022-11-21T06:04:50.954Z,185.30
2022-11-21T06:05:50.948Z,207.00
2022-11-21T06:06:50.932Z,220.10
2022-11-21T06:07:50.934Z,164.80
2022-11-21T06:08:50.944Z,185.40
2022-11-21T06:09:50.891Z,193.60
2022-11-21T06:10:50.900Z,266.80
2022-11-21T06:11:50.863Z,196.20
2022-11-21T06:12:50.876Z,178.20
2022-11-21T06:13:50.872Z,179.00
2022-11-21T06:14:50.843Z,195.50
2022-11-21T06:15:50.857Z,159.20
2022-11-21T06:16:50.831Z,223.60
2022-11-21T06:17:50.815Z,198.80
2022-11-21T06:18:55.129Z,183.10
2022-11-21T06:19:51.773Z,168.90
2022-11-21T06:20:50.777Z,188.50
2022-11-21T06:21:50.774Z,215.30
2022-11-21T06:22:50.767Z,220.40
2022-11-21T06:23:50.780Z,171.50
2022-11-21T06:24:50.741Z,197.20
2022-11-21T06:25:50.737Z,192.40
2022-11-21T06:26:50.732Z,204.10
2022-11-21T06:27:50.691Z,187.20
2022-11-21T06:28:50.722Z,273.10
2022-11-21T06:29:50.680Z,269.20
2022-11-21T06:30:50.680Z,176.90
2022-11-21T06:31:50.650Z,176.60
2022-11-21T06:32:50.700Z,203.20
2022-11-21T06:33:50.691Z,188.90
2022-11-21T06:34:50.647Z,199.70
2022-11-21T06:35:50.611Z,183.80
2022-11-21T06:36:50.605Z,156.70
2022-11-21T06:37:53.485Z,178.20
2022-11-21T06:38:50.581Z,179.30
2022-11-21T06:39:50.617Z,179.60
2022-11-21T06:40:50.557Z,200.90
2022-11-21T06:41:50.561Z,271.40
2022-11-21T06:42:50.539Z,177.40
2022-11-21T06:43:50.525Z,222.50
2022-11-21T06:44:50.559Z,155.50
2022-11-21T06:45:50.520Z,231.80
2022-11-21T06:46:51.681Z,242.00
2022-11-21T06:47:50.485Z,217.90
2022-11-21T06:48:50.470Z,168.90
2022-11-21T06:49:50.495Z,243.00
2022-11-21T06:50:50.445Z,272.90
2022-11-21T06:51:50.429Z,230.80
2022-11-21T06:52:50.419Z,181.20
2022-11-21T06:53:50.413Z,194.20
2022-11-21T06:54:50.445Z,232.90
2022-11-21T06:55:50.395Z,236.00
2022-11-21T06:56:50.409Z,261.50
2022-11-21T06:57:50.378Z,248.80
2022-11-21T06:58:50.382Z,270.60
2022-11-21T06:59:50.394Z,255.10
2022-11-21T07:00:50.453Z,259.10
2022-11-21T07:01:50.378Z,213.90
2022-11-21T07:02:50.313Z,219.50
2022-11-21T07:03:50.312Z,241.80
2022-11-21T07:04:50.346Z,225.10
2022-11-21T07:05:50.293Z,237.10
2022-11-21T07:06:50.276Z,284.70
2022-11-21T07:07:50.272Z,214.90
2022-11-21T07:09:05.014Z,188.70
2022-11-21T07:09:51.423Z,254.30
2022-11-21T07:11:17.748Z,253.20
2022-11-21T07:11:51.200Z,222.10
2022-11-21T07:12:50.202Z,239.00
2022-11-21T07:13:50.209Z,237.20
2022-11-21T07:14:50.221Z,211.90
2022-11-21T07:15:50.182Z,181.90
2022-11-21T07:16:50.169Z,180.50
2022-11-21T07:17:50.166Z,177.20
2022-11-21T07:18:50.155Z,182.80
2022-11-21T07:19:50.212Z,200.10
2022-11-21T07:20:50.126Z,236.20
2022-11-21T07:21:50.114Z,192.80
2022-11-21T07:22:50.109Z,249.20
2022-11-21T07:23:50.107Z,245.50
2022-11-21T07:24:50.118Z,242.90
2022-11-21T07:25:50.081Z,222.60
2022-11-21T07:26:50.047Z,249.20
2022-11-21T07:27:50.055Z,169.20
2022-11-21T07:28:50.047Z,203.90
2022-11-21T07:29:50.053Z,214.80
2022-11-21T07:30:50.007Z,161.10
2022-11-21T07:31:50.024Z,264.80
2022-11-21T07:32:49.987Z,169.80
2022-11-21T07:33:50.000Z,173.40
2022-11-21T07:34:49.989Z,167.90
2022-11-21T07:35:50.020Z,166.50
2022-11-21T07:36:49.956Z,273.30
2022-11-21T07:37:49.938Z,266.10
2022-11-21T07:38:49.923Z,191.80
2022-11-21T07:39:49.918Z,185.80
2022-11-21T07:40:49.924Z,210.50
2022-11-21T07:41:49.907Z,219.10
2022-11-21T07:42:49.902Z,333.90
2022-11-21T07:43:49.868Z,229.00
2022-11-21T07:44:49.873Z,241.20
2022-11-21T07:45:49.904Z,185.00
2022-11-21T07:46:49.857Z,201.80
2022-11-21T07:47:49.850Z,168.70
2022-11-21T07:48:49.825Z,245.00
2022-11-21T07:49:49.824Z,205.50
2022-11-21T07:50:49.831Z,193.40
2022-11-21T07:51:49.794Z,405.70
2022-11-21T07:52:49.782Z,165.80
2022-11-21T07:53:49.761Z,166.50
2022-11-21T07:54:49.768Z,200.90
2022-11-21T07:55:49.781Z,315.80
2022-11-21T07:56:49.729Z,313.90
2022-11-21T07:57:49.747Z,255.10
2022-11-21T07:58:49.725Z,192.30
2022-11-21T07:59:49.697Z,177.10
2022-11-21T08:00:49.724Z,245.50
2022-11-21T08:01:49.715Z,461.90
2022-11-21T08:02:49.656Z,327.50
2022-11-21T08:03:49.657Z,296.90
2022-11-21T08:04:49.635Z,269.30
2022-11-21T08:05:49.705Z,274.50
2022-11-21T08:06:49.641Z,418.90
2022-11-21T08:07:49.611Z,453.10
2022-11-21T08:08:50.551Z,509.30
2022-11-21T08:09:49.591Z,285.10
2022-11-21T08:10:49.612Z,369.10
2022-11-21T08:11:49.590Z,225.90
2022-11-21T08:12:49.550Z,359.50
2022-11-21T08:13:49.555Z,293.50
2022-11-21T08:14:49.517Z,343.80
2022-11-21T08:15:49.560Z,241.80
2022-11-21T08:16:49.508Z,676.60
2022-11-21T08:17:49.506Z,247.10
2022-11-21T08:18:49.504Z,476.40
2022-11-21T08:19:49.479Z,563.00
2022-11-21T08:20:49.499Z,341.90
2022-11-21T08:21:49.460Z,434.60
2022-11-21T08:22:49.454Z,251.50
2022-11-21T08:23:49.439Z,346.00
2022-11-21T08:24:49.465Z,330.20
2022-11-21T08:25:49.464Z,999.90
2022-11-21T08:26:49.418Z,330.70
2022-11-21T08:27:49.405Z,297.20
2022-11-21T08:28:49.379Z,999.90
2022-11-21T08:29:49.407Z,231.50
2022-11-21T08:30:49.380Z,286.70
2022-11-21T08:31:49.358Z,308.40
2022-11-21T08:32:49.338Z,773.40
2022-11-21T08:33:49.340Z,440.70
2022-11-21T08:34:49.314Z,389.20
2022-11-21T08:35:49.333Z,346.20
2022-11-21T08:36:49.298Z,412.00
2022-11-21T08:37:49.302Z,999.90
2022-11-21T08:38:49.254Z,236.70
2022-11-21T08:39:49.267Z,444.70
2022-11-21T08:40:49.267Z,331.10
2022-11-21T08:41:49.251Z,999.90
2022-11-21T08:42:49.229Z,999.90
2022-11-21T08:43:49.224Z,190.40
2022-11-21T08:44:49.231Z,300.80
2022-11-21T08:45:49.234Z,314.40
2022-11-21T08:46:49.201Z,347.90
2022-11-21T08:47:49.182Z,258.30
2022-11-21T08:48:49.157Z,354.60
2022-11-21T08:49:49.157Z,999.90
2022-11-21T08:50:49.171Z,999.90
2022-11-21T08:51:49.174Z,999.90
2022-11-21T08:52:49.105Z,999.90
2022-11-21T08:53:49.117Z,426.30
2022-11-21T08:54:49.107Z,369.20
2022-11-21T08:55:49.130Z,999.90
2022-11-21T08:56:49.064Z,999.90
2022-11-21T08:57:49.061Z,132.20
2022-11-21T08:58:49.074Z,251.00
2022-11-21T08:59:49.042Z,291.30
2022-11-21T09:00:49.062Z,999.90
2022-11-21T09:01:49.069Z,999.90
2022-11-21T09:02:49.034Z,999.90
2022-11-21T09:03:49.021Z,999.90
2022-11-21T09:04:48.976Z,999.90
2022-11-21T09:05:49.003Z,999.90
2022-11-21T09:06:48.968Z,999.90
2022-11-21T09:07:49.038Z,999.90
2022-11-21T09:08:48.944Z,999.90
2022-11-21T09:09:48.937Z,999.90
2022-11-21T09:10:48.956Z,999.90
2022-11-21T09:11:48.919Z,999.90
2022-11-21T09:12:48.895Z,999.90
2022-11-21T09:13:48.879Z,999.90
2022-11-21T09:14:49.523Z,999.90
2022-11-21T09:15:48.887Z,999.90
2022-11-21T09:16:48.837Z,999.90
2022-11-21T09:17:48.824Z,999.90
2022-11-21T09:18:48.831Z,999.90
2022-11-21T09:19:48.814Z,999.90
2022-11-21T09:20:48.902Z,999.90
2022-11-21T09:21:48.799Z,999.90
2022-11-21T09:22:48.780Z,999.90
2022-11-21T09:23:48.772Z,999.90
2022-11-21T09:24:48.758Z,999.90
2022-11-21T09:25:48.785Z,999.90
2022-11-21T09:26:48.829Z,999.90
2022-11-21T09:27:48.725Z,999.90
2022-11-21T09:28:48.723Z,999.90
2022-11-21T09:29:53.870Z,999.90
2022-11-21T09:30:49.748Z,999.90
2022-11-21T09:31:48.695Z,999.90
2022-11-21T09:32:48.671Z,999.90
2022-11-21T09:33:53.595Z,999.90
2022-11-21T09:34:49.672Z,999.90
2022-11-21T09:35:48.674Z,999.90
2022-11-21T09:36:48.643Z,999.90
2022-11-21T09:37:48.628Z,999.90
2022-11-21T09:38:48.600Z,999.90
2022-11-21T09:39:49.072Z,999.90
2022-11-21T09:40:48.598Z,999.90
2022-11-21T09:41:48.606Z,999.90
2022-11-21T09:42:48.562Z,999.90
2022-11-21T09:43:53.045Z,999.90
2022-11-21T09:44:49.558Z,999.90
2022-11-21T09:45:48.537Z,999.90
2022-11-21T09:46:48.548Z,999.90
2022-11-21T09:47:48.503Z,999.90
2022-11-21T09:48:48.489Z,999.90
2022-11-21T09:49:48.483Z,999.90
2022-11-21T09:50:53.564Z,999.90
2022-11-21T09:51:49.508Z,999.90
2022-11-21T09:52:48.427Z,999.90
2022-11-21T09:53:49.652Z,999.90
2022-11-21T09:54:48.415Z,999.90
2022-11-21T09:55:48.416Z,341.30
2022-11-21T09:56:48.449Z,432.70
2022-11-21T09:57:48.420Z,494.30
2022-11-21T09:58:48.401Z,565.20
2022-11-21T09:59:48.370Z,315.00
2022-11-21T10:00:48.379Z,335.90
2022-11-21T10:01:48.383Z,288.10
2022-11-21T10:02:48.343Z,41.30
2022-11-21T10:03:48.325Z,305.20
2022-11-21T10:04:48.330Z,430.20
2022-11-21T10:05:48.303Z,126.20
2022-11-21T10:06:48.329Z,264.80
2022-11-21T10:07:48.316Z,187.10
2022-11-21T10:08:48.267Z,999.90
2022-11-21T10:09:48.349Z,272.50
2022-11-21T10:10:48.238Z,999.90
2022-11-21T10:11:48.255Z,356.00
2022-11-21T10:12:48.222Z,120.00
2022-11-21T10:13:48.197Z,318.80
2022-11-21T10:14:48.257Z,158.20
2022-11-21T10:15:48.190Z,146.20
2022-11-21T10:16:48.205Z,310.60
2022-11-21T10:17:48.279Z,379.70
2022-11-21T10:18:49.529Z,999.90
2022-11-21T10:19:48.151Z,470.70
2022-11-21T10:20:48.113Z,210.40
2022-11-21T10:21:48.156Z,310.30
2022-11-21T10:22:48.134Z,173.10
2022-11-21T10:23:48.111Z,372.30
2022-11-21T10:24:48.074Z,291.40
2022-11-21T10:25:48.088Z,358.70
2022-11-21T10:26:48.065Z,70.90
2022-11-21T10:27:48.037Z,389.70
2022-11-21T10:28:48.019Z,180.00
2022-11-21T10:29:48.016Z,54.10
2022-11-21T10:30:48.033Z,94.90
2022-11-21T10:31:48.042Z,90.10
2022-11-21T10:32:47.997Z,49.20
2022-11-21T10:33:47.988Z,48.20
2022-11-21T10:34:47.946Z,29.40
2022-11-21T10:35:47.956Z,35.70
2022-11-21T10:36:47.986Z,31.50
2022-11-21T10:37:47.924Z,35.40
2022-11-21T10:38:47.914Z,39.80
2022-11-21T10:39:47.920Z,39.60
2022-11-21T10:40:47.893Z,44.60
2022-11-21T10:41:47.929Z,46.70
2022-11-21T10:42:48.626Z,40.80
2022-11-21T10:43:47.887Z,72.60
2022-11-21T10:44:47.860Z,54.20
2022-11-21T10:45:47.844Z,51.90
2022-11-21T10:46:47.861Z,40.30
2022-11-21T10:47:47.812Z,44.50
2022-11-21T10:48:47.819Z,31.60
2022-11-21T10:49:47.801Z,33.00
2022-11-21T10:50:47.798Z,31.80
2022-11-21T10:51:47.852Z,28.50
2022-11-21T10:52:48.114Z,39.00
2022-11-21T10:53:47.759Z,48.80
2022-11-21T10:54:47.748Z,34.80
2022-11-21T10:55:47.739Z,41.40
2022-11-21T10:56:47.712Z,42.50
2022-11-21T10:57:47.744Z,39.70
2022-11-21T10:58:48.168Z,35.00
2022-11-21T10:59:47.690Z,39.10
2022-11-21T11:00:47.716Z,31.10
2022-11-21T11:01:48.060Z,39.40
2022-11-21T11:02:47.683Z,41.50
2022-11-21T11:04:06.949Z,40.70
2022-11-21T11:04:52.191Z,30.80
2022-11-21T11:05:47.631Z,36.60
2022-11-21T11:06:47.620Z,34.50
2022-11-21T11:07:47.683Z,26.80
2022-11-21T11:08:47.623Z,36.80
2022-11-21T11:09:47.601Z,39.10
2022-11-21T11:10:47.554Z,27.10
2022-11-21T11:11:48.150Z,36.50
2022-11-21T11:12:47.576Z,26.20
2022-11-21T11:13:49.414Z,30.60
2022-11-21T11:14:47.525Z,29.10
2022-11-21T11:15:47.531Z,29.40
2022-11-21T11:16:47.494Z,28.10
2022-11-21T11:17:48.097Z,23.20
2022-11-21T11:18:47.480Z,25.50
2022-11-21T11:19:47.955Z,25.00
2022-11-21T11:20:47.470Z,28.20
2022-11-21T11:21:47.436Z,30.10
2022-11-21T11:22:48.083Z,32.10
2022-11-21T11:23:47.444Z,28.60
2022-11-21T11:24:47.416Z,30.90
2022-11-21T11:25:47.900Z,29.20
2022-11-21T11:26:48.645Z,28.10
2022-11-21T11:27:47.415Z,29.10
2022-11-21T11:28:47.916Z,29.30
2022-11-21T11:29:47.350Z,29.00
2022-11-21T11:30:47.346Z,24.30
2022-11-21T11:31:47.339Z,24.20
2022-11-21T11:32:48.072Z,22.70
2022-11-21T11:33:47.293Z,23.30
2022-11-21T11:34:47.320Z,20.60
2022-11-21T11:35:47.281Z,18.90
2022-11-21T11:36:47.320Z,19.70
2022-11-21T11:37:47.267Z,20.40
2022-11-21T11:38:47.353Z,16.70
2022-11-21T11:39:48.119Z,18.90
2022-11-21T11:40:47.216Z,19.40
2022-11-21T11:41:47.302Z,15.10
2022-11-21T11:42:47.295Z,15.50
2022-11-21T11:43:47.295Z,16.10
2022-11-21T11:44:47.194Z,15.10
2022-11-21T11:45:47.173Z,14.60
2022-11-21T11:46:47.236Z,13.00
2022-11-21T11:47:54.131Z,14.80
2022-11-21T11:49:17.546Z,13.10
2022-11-21T11:49:48.118Z,14.80
2022-11-21T11:50:47.124Z,14.80
2022-11-21T11:51:47.101Z,15.30
2022-11-21T11:52:47.134Z,15.90
2022-11-21T11:53:47.228Z,15.50
2022-11-21T11:54:47.168Z,15.70
2022-11-21T11:55:47.085Z,16.40
2022-11-21T11:56:47.368Z,17.80
2022-11-21T11:57:47.091Z,21.50
2022-11-21T11:58:47.063Z,23.40
2022-11-21T11:59:47.106Z,23.50
2022-11-21T12:00:47.001Z,23.60
2022-11-21T12:01:47.069Z,22.20
2022-11-21T12:02:47.173Z,25.10
2022-11-21T12:03:47.179Z,17.10
2022-11-21T12:04:47.108Z,12.40
2022-11-21T12:05:47.053Z,11.80
2022-11-21T12:08:39.636Z,13.80
2022-11-21T12:08:47.952Z,13.80
2022-11-21T12:09:46.897Z,13.80
2022-11-21T12:10:46.908Z,14.70
2022-11-21T12:11:46.989Z,14.60
2022-11-21T12:12:46.889Z,14.10
2022-11-21T12:13:47.944Z,13.00
2022-11-21T12:14:47.044Z,11.90
2022-11-21T12:15:47.161Z,13.70
2022-11-21T12:16:47.096Z,43.10
2022-11-21T12:17:47.122Z,27.60
2022-11-21T12:18:47.118Z,21.80
2022-11-21T12:19:47.128Z,27.00
2022-11-21T12:20:46.791Z,18.30
2022-11-21T12:21:46.787Z,23.30
2022-11-21T12:22:47.134Z,20.10
2022-11-21T12:23:47.258Z,19.20
2022-11-21T12:24:48.116Z,12.80
2022-11-21T12:25:47.374Z,21.30
2022-11-21T12:26:47.161Z,27.10
2022-11-21T12:27:47.091Z,24.50
2022-11-21T12:28:47.156Z,34.50
2022-11-21T12:29:47.142Z,22.10
2022-11-21T12:30:46.687Z,17.80
2022-11-21T12:31:47.151Z,16.60
2022-11-21T12:32:47.079Z,22.20
2022-11-21T12:33:46.957Z,13.60